createdAt,value
2023-01-28T00:01:32.741Z,3.92
2023-01-28T00:04:18.422Z,3.55
2023-01-28T00:07:03.825Z,3.42
2023-01-28T00:09:49.317Z,3.67
2023-01-28T00:12:34.671Z,4.00
2023-01-28T00:15:20.228Z,3.22
2023-01-28T00:18:05.591Z,3.47
2023-01-28T00:21:02.053Z,3.38
2023-01-28T00:23:54.373Z,3.08
2023-01-28T00:26:39.960Z,3.22
2023-01-28T00:29:25.665Z,3.28
2023-01-28T00:32:11.376Z,2.90
2023-01-28T00:34:57.026Z,3.13
2023-01-28T00:37:44.994Z,3.10
2023-01-28T00:40:30.850Z,3.05
2023-01-28T00:43:16.048Z,2.88
2023-01-28T00:46:01.504Z,2.85
2023-01-28T00:48:47.185Z,3.17
2023-01-28T00:51:32.364Z,3.47
2023-01-28T00:54:17.961Z,3.35
2023-01-28T00:57:03.404Z,3.10
2023-01-28T00:59:48.881Z,2.80
2023-01-28T01:02:34.478Z,3.20
2023-01-28T01:05:19.922Z,2.92
2023-01-28T01:08:05.596Z,3.08
2023-01-28T01:10:50.736Z,2.85
2023-01-28T01:13:36.768Z,2.85
2023-01-28T01:16:23.532Z,2.95
2023-01-28T01:19:09.446Z,2.50
2023-01-28T01:21:56.198Z,2.75
2023-01-28T01:24:41.644Z,2.55
2023-01-28T01:27:27.053Z,2.63
2023-01-28T01:30:13.345Z,2.60
2023-01-28T01:32:58.816Z,2.22
2023-01-28T01:35:44.379Z,2.20
2023-01-28T01:38:30.085Z,2.17
2023-01-28T01:41:24.642Z,2.10
2023-01-28T01:44:47.858Z,2.60
2023-01-28T01:47:54.043Z,2.80
2023-01-28T01:50:57.868Z,2.50
2023-01-28T01:53:47.768Z,2.55
2023-01-28T01:56:37.612Z,2.90
2023-01-28T01:59:28.806Z,2.67
2023-01-28T02:02:14.330Z,2.50
2023-01-28T02:04:59.662Z,2.47
2023-01-28T02:07:47.344Z,2.58
2023-01-28T02:10:32.573Z,3.05
2023-01-28T02:13:20.491Z,3.33
2023-01-28T02:16:08.310Z,3.10
2023-01-28T02:18:53.660Z,2.92
2023-01-28T02:21:57.597Z,2.60
2023-01-28T02:25:05.980Z,3.00
2023-01-28T02:28:09.458Z,2.67
2023-01-28T02:31:23.471Z,2.90
2023-01-28T02:34:45.669Z,2.97
2023-01-28T02:38:10.296Z,2.35
2023-01-28T02:41:10.211Z,2.53
2023-01-28T02:43:55.621Z,2.70
2023-01-28T02:46:59.667Z,2.85
2023-01-28T02:49:50.970Z,3.08
2023-01-28T02:53:20.827Z,2.92
2023-01-28T02:56:14.888Z,2.80
2023-01-28T02:59:32.122Z,3.10
2023-01-28T03:02:28.607Z,2.75
2023-01-28T03:05:24.997Z,2.70
2023-01-28T03:08:30.158Z,2.80
2023-01-28T03:11:34.164Z,2.70
2023-01-28T03:14:39.088Z,3.10
2023-01-28T03:18:07.988Z,3.30
2023-01-28T03:21:39.401Z,3.50
2023-01-28T03:24:50.344Z,3.47
2023-01-28T03:28:02.075Z,3.28
2023-01-28T03:31:16.704Z,3.65
2023-01-28T03:34:29.720Z,4.18
2023-01-28T03:37:15.149Z,3.80
2023-01-28T03:40:20.864Z,3.83
2023-01-28T03:43:06.278Z,4.18
2023-01-28T03:45:52.757Z,3.95
2023-01-28T03:48:38.693Z,3.90
2023-01-28T03:51:25.629Z,3.72
2023-01-28T03:54:11.984Z,3.25
2023-01-28T03:56:57.409Z,3.45
2023-01-28T03:59:44.002Z,3.75
2023-01-28T04:02:30.010Z,3.72
2023-01-28T04:05:19.836Z,3.97
2023-01-28T04:08:08.462Z,3.40
2023-01-28T04:11:24.153Z,3.65
2023-01-28T04:14:09.691Z,4.50
2023-01-28T04:17:10.821Z,4.32
2023-01-28T04:19:56.556Z,3.70
2023-01-28T04:22:42.572Z,3.90
2023-01-28T04:25:29.716Z,3.60
2023-01-28T04:28:16.319Z,3.13
2023-01-28T04:31:01.986Z,3.00
2023-01-28T04:34:13.362Z,2.97
2023-01-28T04:37:19.685Z,3.30
2023-01-28T04:40:25.421Z,3.67
2023-01-28T04:43:16.713Z,3.33
2023-01-28T04:46:08.763Z,3.03
2023-01-28T04:49:32.856Z,2.90
2023-01-28T04:52:32.332Z,3.17
2023-01-28T04:55:36.103Z,3.60
2023-01-28T04:58:21.812Z,3.60
2023-01-28T05:01:09.842Z,3.25
2023-01-28T05:03:55.297Z,3.90
2023-01-28T05:06:43.822Z,3.22
2023-01-28T05:09:33.930Z,3.85
2023-01-28T05:12:20.782Z,3.80
2023-01-28T05:15:06.771Z,3.70
2023-01-28T05:17:56.278Z,3.60
2023-01-28T05:20:42.648Z,3.33
2023-01-28T05:23:28.482Z,3.78
2023-01-28T05:26:16.229Z,3.63
2023-01-28T05:29:02.489Z,3.50
2023-01-28T05:31:48.346Z,3.08
2023-01-28T05:34:34.530Z,2.70
2023-01-28T05:37:25.917Z,2.70
2023-01-28T05:40:15.051Z,3.10
2023-01-28T05:43:00.652Z,2.92
2023-01-28T05:45:57.802Z,3.47
2023-01-28T05:48:51.714Z,3.50
2023-01-28T05:52:01.408Z,3.30
2023-01-28T05:54:47.133Z,2.83
2023-01-28T05:57:32.634Z,3.10
2023-01-28T06:00:18.635Z,3.72
2023-01-28T06:03:04.541Z,3.53
2023-01-28T06:05:50.621Z,3.42
2023-01-28T06:08:37.352Z,3.50
2023-01-28T06:11:23.237Z,3.30
2023-01-28T06:14:12.085Z,3.10
2023-01-28T06:17:09.437Z,3.22
2023-01-28T06:20:11.283Z,3.10
2023-01-28T06:22:57.945Z,3.15
2023-01-28T06:25:43.428Z,2.97
2023-01-28T06:28:30.731Z,2.92
2023-01-28T06:31:16.422Z,3.25
2023-01-28T06:34:01.785Z,2.95
2023-01-28T06:36:46.893Z,3.30
2023-01-28T06:39:33.162Z,3.10
2023-01-28T06:42:18.577Z,2.60
2023-01-28T06:45:04.376Z,2.80
2023-01-28T06:47:49.766Z,2.83
2023-01-28T06:50:35.267Z,2.70
2023-01-28T06:53:21.624Z,2.80
2023-01-28T06:56:07.812Z,2.40
2023-01-28T06:58:53.141Z,2.50
2023-01-28T07:01:38.374Z,2.10
2023-01-28T07:04:23.830Z,1.98
2023-01-28T07:07:09.257Z,1.88
2023-01-28T07:09:54.575Z,2.00
2023-01-28T07:12:40.019Z,2.03
2023-01-28T07:15:25.222Z,1.75
2023-01-28T07:18:10.755Z,1.33
2023-01-28T07:20:56.489Z,1.60
2023-01-28T07:23:42.206Z,1.42
2023-01-28T07:26:27.356Z,1.52
2023-01-28T07:29:13.033Z,2.42
2023-01-28T07:31:58.147Z,2.30
2023-01-28T07:34:43.429Z,2.50
2023-01-28T07:37:28.948Z,2.50
2023-01-28T07:40:14.885Z,2.55
2023-01-28T07:43:00.872Z,2.50
2023-01-28T07:45:48.487Z,2.50
2023-01-28T07:48:35.738Z,2.67
2023-01-28T07:51:21.202Z,2.55
2023-01-28T07:54:08.501Z,2.70
2023-01-28T07:56:55.905Z,2.15
2023-01-28T07:59:41.271Z,2.10
2023-01-28T08:02:26.954Z,2.17
2023-01-28T08:05:12.316Z,2.10
2023-01-28T08:07:57.839Z,2.10
2023-01-28T08:10:43.980Z,2.00
2023-01-28T08:13:29.207Z,1.92
2023-01-28T08:16:14.608Z,2.08
2023-01-28T08:19:00.284Z,1.90
2023-01-28T08:21:47.799Z,1.80
2023-01-28T08:24:33.277Z,1.90
2023-01-28T08:27:18.873Z,1.77
2023-01-28T08:30:05.010Z,1.88
2023-01-28T08:32:50.053Z,1.27
2023-01-28T08:35:36.165Z,1.70
2023-01-28T08:38:21.477Z,1.52
2023-01-28T08:41:06.963Z,1.60
2023-01-28T08:43:52.091Z,1.60
2023-01-28T08:46:37.589Z,1.40
2023-01-28T08:49:22.944Z,1.50
2023-01-28T08:52:08.521Z,1.40
2023-01-28T08:54:53.998Z,1.45
2023-01-28T08:57:39.543Z,1.70
2023-01-28T09:00:25.150Z,1.50
2023-01-28T09:03:10.576Z,1.70
2023-01-28T09:06:01.165Z,1.63
2023-01-28T09:08:46.444Z,1.85
2023-01-28T09:11:31.707Z,1.80
2023-01-28T09:14:17.097Z,1.95
2023-01-28T09:17:04.101Z,1.90
2023-01-28T09:19:49.825Z,1.60
2023-01-28T09:22:35.247Z,1.80
2023-01-28T09:25:20.909Z,2.05
2023-01-28T09:28:06.645Z,1.90
2023-01-28T09:30:51.856Z,1.67
2023-01-28T09:33:39.356Z,1.33
2023-01-28T09:36:24.947Z,1.70
2023-01-28T09:39:10.481Z,1.40
2023-01-28T09:42:34.300Z,1.20
2023-01-28T09:45:58.252Z,1.40
2023-01-28T09:48:50.483Z,1.55
2023-01-28T09:51:56.062Z,1.30
2023-01-28T09:54:58.028Z,1.10
2023-01-28T09:57:50.069Z,1.27
2023-01-28T10:00:46.734Z,1.33
2023-01-28T10:03:42.493Z,1.15
2023-01-28T10:06:57.462Z,1.20
2023-01-28T10:10:07.968Z,0.95
2023-01-28T10:13:16.092Z,1.08
2023-01-28T10:16:24.812Z,1.00
2023-01-28T10:19:33.349Z,1.20
2023-01-28T10:22:26.823Z,1.20
2023-01-28T10:25:21.216Z,1.27
2023-01-28T10:28:18.045Z,1.10
2023-01-28T10:31:08.715Z,1.55
2023-01-28T10:33:54.141Z,1.40
2023-01-28T10:36:39.958Z,1.38
2023-01-28T10:39:26.439Z,1.38
2023-01-28T10:42:34.911Z,1.52
2023-01-28T10:45:30.614Z,2.10
2023-01-28T10:48:24.440Z,1.70
2023-01-28T10:51:09.776Z,1.48
2023-01-28T10:53:55.095Z,1.40
2023-01-28T10:56:43.690Z,1.63
2023-01-28T10:59:41.678Z,1.52
2023-01-28T11:02:32.074Z,1.17
2023-01-28T11:05:28.372Z,1.10
2023-01-28T11:08:16.519Z,1.10
2023-01-28T11:11:01.699Z,1.25
2023-01-28T11:13:51.970Z,1.15
2023-01-28T11:16:40.229Z,1.30
2023-01-28T11:19:34.617Z,1.20
2023-01-28T11:22:34.125Z,1.27
2023-01-28T11:25:26.441Z,1.00
2023-01-28T11:28:19.909Z,1.08
2023-01-28T11:31:05.597Z,1.50
2023-01-28T11:33:59.382Z,1.30
2023-01-28T11:37:02.690Z,1.10
2023-01-28T11:39:48.557Z,1.02
2023-01-28T11:42:34.142Z,1.30
2023-01-28T11:45:46.367Z,1.23
2023-01-28T11:49:09.717Z,1.02
2023-01-28T11:52:07.165Z,1.42
2023-01-28T11:55:16.506Z,1.20
2023-01-28T11:58:21.072Z,1.40
2023-01-28T12:01:16.568Z,1.38
2023-01-28T12:04:20.901Z,1.00
2023-01-28T12:07:22.979Z,1.30
2023-01-28T12:10:36.630Z,1.20
2023-01-28T12:13:37.213Z,1.20
2023-01-28T12:16:39.385Z,1.15
2023-01-28T12:19:40.885Z,1.83
2023-01-28T12:22:52.244Z,1.73
2023-01-28T12:25:57.037Z,1.50
2023-01-28T12:29:08.502Z,1.65
2023-01-28T12:32:02.988Z,1.60
2023-01-28T12:35:19.734Z,1.90
2023-01-28T12:38:29.523Z,1.70
2023-01-28T12:41:18.750Z,1.90
2023-01-28T12:44:09.458Z,1.50
2023-01-28T12:47:08.988Z,1.50
2023-01-28T12:49:59.445Z,1.80
2023-01-28T12:52:54.308Z,1.30
2023-01-28T12:55:47.665Z,1.52
2023-01-28T12:59:05.090Z,1.50
2023-01-28T13:01:54.042Z,1.50
2023-01-28T13:05:09.888Z,1.65
2023-01-28T13:08:03.150Z,1.40
2023-01-28T13:10:48.891Z,1.45
2023-01-28T13:13:37.687Z,1.80
2023-01-28T13:16:35.883Z,1.35
2023-01-28T13:19:25.493Z,1.95
2023-01-28T13:22:27.212Z,1.58
2023-01-28T13:25:28.048Z,2.05
2023-01-28T13:28:27.016Z,1.55
2023-01-28T13:31:17.674Z,1.55
2023-01-28T13:34:05.131Z,1.40
2023-01-28T13:36:51.290Z,1.60
2023-01-28T13:39:37.246Z,1.40
2023-01-28T13:42:30.526Z,1.40
2023-01-28T13:45:16.209Z,1.60
2023-01-28T13:48:26.552Z,1.80
2023-01-28T13:51:23.926Z,1.50
2023-01-28T13:54:20.480Z,1.90
2023-01-28T13:57:27.122Z,1.88
2023-01-28T14:00:44.420Z,1.50
2023-01-28T14:03:57.500Z,1.90
2023-01-28T14:07:08.799Z,1.75
2023-01-28T14:10:20.244Z,1.70
2023-01-28T14:13:38.761Z,1.83
2023-01-28T14:16:38.348Z,1.80
2023-01-28T14:19:31.341Z,1.75
2023-01-28T14:22:20.253Z,1.48
2023-01-28T14:25:15.087Z,1.52
2023-01-28T14:28:02.900Z,1.58
2023-01-28T14:30:56.228Z,1.50
2023-01-28T14:33:43.426Z,1.38
2023-01-28T14:36:29.921Z,1.50
2023-01-28T14:39:21.780Z,1.60
2023-01-28T14:42:21.615Z,1.42
2023-01-28T14:45:37.871Z,1.70
2023-01-28T14:48:47.916Z,1.35
2023-01-28T14:51:54.720Z,1.58
2023-01-28T14:54:57.388Z,1.45
2023-01-28T14:57:51.136Z,1.48
2023-01-28T15:00:36.873Z,1.45
2023-01-28T15:03:25.245Z,1.20
2023-01-28T15:06:17.566Z,1.63
2023-01-28T15:09:13.097Z,1.65
2023-01-28T15:11:58.979Z,2.00
2023-01-28T15:14:45.771Z,1.60
2023-01-28T15:17:32.013Z,1.60
2023-01-28T15:20:23.669Z,1.50
2023-01-28T15:23:09.307Z,1.33
2023-01-28T15:25:55.800Z,1.52
2023-01-28T15:28:44.205Z,1.40
2023-01-28T15:31:32.759Z,1.45
2023-01-28T15:34:20.599Z,1.70
2023-01-28T15:37:05.826Z,1.52
2023-01-28T15:40:18.066Z,2.13
2023-01-28T15:43:03.814Z,1.70
2023-01-28T15:45:52.546Z,1.70
2023-01-28T15:48:42.417Z,1.80
2023-01-28T15:51:32.344Z,2.00
2023-01-28T15:54:18.445Z,1.88
2023-01-28T15:57:31.304Z,1.92
2023-01-28T16:03:09.820Z,2.08
2023-01-28T16:06:00.896Z,1.77
2023-01-28T16:08:52.768Z,1.60
2023-01-28T16:11:44.742Z,1.70
2023-01-28T16:14:42.095Z,1.85
2023-01-28T16:17:38.733Z,1.60
2023-01-28T16:20:29.682Z,1.65
2023-01-28T16:23:28.691Z,1.63
2023-01-28T16:26:23.890Z,1.70
2023-01-28T16:29:16.563Z,1.80
2023-01-28T16:32:03.518Z,2.00
2023-01-28T16:34:49.206Z,2.00
2023-01-28T16:37:37.280Z,2.13
2023-01-28T16:40:25.816Z,2.10
2023-01-28T16:43:13.176Z,1.88
2023-01-28T16:45:58.466Z,2.25
2023-01-28T16:48:43.790Z,2.08
2023-01-28T16:51:29.885Z,2.20
2023-01-28T16:54:16.485Z,2.30
2023-01-28T16:57:02.023Z,2.40
2023-01-28T16:59:47.205Z,2.22
2023-01-28T17:02:32.615Z,2.15
2023-01-28T17:05:19.758Z,2.20
2023-01-28T17:08:05.206Z,2.53
2023-01-28T17:10:55.072Z,2.67
2023-01-28T17:13:40.960Z,2.28
2023-01-28T17:16:26.913Z,2.15
2023-01-28T17:19:12.788Z,2.22
2023-01-28T17:22:01.059Z,1.85
2023-01-28T17:24:46.753Z,2.53
2023-01-28T17:27:32.164Z,2.50
2023-01-28T17:30:20.881Z,2.97
2023-01-28T17:33:06.847Z,2.92
2023-01-28T17:35:52.183Z,3.28
2023-01-28T17:38:37.480Z,3.25
2023-01-28T17:41:23.154Z,3.50
2023-01-28T17:44:16.532Z,3.25
2023-01-28T17:47:02.202Z,3.35
2023-01-28T17:49:47.768Z,3.72
2023-01-28T17:52:33.409Z,3.80
2023-01-28T17:55:18.790Z,3.28
2023-01-28T17:58:04.575Z,3.60
2023-01-28T18:00:51.194Z,2.78
2023-01-28T18:03:37.127Z,3.00
2023-01-28T18:06:22.869Z,2.80
2023-01-28T18:09:09.247Z,2.90
2023-01-28T18:11:54.995Z,3.13
2023-01-28T18:14:40.753Z,3.10
2023-01-28T18:17:29.762Z,3.17
2023-01-28T18:20:15.454Z,2.70
2023-01-28T18:23:01.202Z,2.85
2023-01-28T18:25:46.589Z,2.63
2023-01-28T18:28:32.137Z,2.83
2023-01-28T18:31:19.553Z,3.00
2023-01-28T18:34:04.652Z,3.05
2023-01-28T18:36:50.260Z,2.60
2023-01-28T18:39:36.189Z,2.88
2023-01-28T18:42:21.820Z,3.25
2023-01-28T18:45:07.692Z,3.25
2023-01-28T18:47:53.322Z,3.15
2023-01-28T18:50:38.536Z,3.42
2023-01-28T18:53:26.130Z,3.25
2023-01-28T18:56:11.550Z,3.63
2023-01-28T18:59:02.628Z,3.38
2023-01-28T19:01:48.091Z,4.05
2023-01-28T19:04:33.318Z,4.13
2023-01-28T19:07:18.865Z,4.10
2023-01-28T19:10:04.816Z,4.25
2023-01-28T19:12:50.330Z,4.28
2023-01-28T19:15:36.075Z,4.07
2023-01-28T19:18:21.520Z,4.20
2023-01-28T19:21:07.784Z,4.00
2023-01-28T19:24:02.371Z,3.70
2023-01-28T19:26:47.974Z,3.80
2023-01-28T19:29:33.309Z,3.70
2023-01-28T19:32:18.826Z,3.80
2023-01-28T19:35:04.859Z,3.67
2023-01-28T19:37:50.352Z,3.80
2023-01-28T19:40:40.138Z,4.05
2023-01-28T19:43:27.622Z,4.05
2023-01-28T19:46:16.086Z,3.45
2023-01-28T19:49:02.633Z,3.47
2023-01-28T19:51:48.120Z,3.80
2023-01-28T19:54:33.540Z,3.33
2023-01-28T19:57:18.943Z,4.20
2023-01-28T20:00:04.897Z,3.80
2023-01-28T20:02:51.354Z,4.07
2023-01-28T20:05:37.416Z,4.57
2023-01-28T20:08:22.799Z,5.05
2023-01-28T20:11:11.287Z,5.18
2023-01-28T20:13:56.643Z,4.80
2023-01-28T20:16:42.135Z,4.72
2023-01-28T20:19:27.597Z,4.53
2023-01-28T20:22:13.101Z,4.20
2023-01-28T20:24:58.485Z,4.07
2023-01-28T20:27:44.031Z,4.10
2023-01-28T20:30:29.420Z,4.10
2023-01-28T20:33:15.056Z,4.22
2023-01-28T20:36:05.700Z,4.13
2023-01-28T20:38:51.168Z,4.00
2023-01-28T20:41:36.747Z,3.47
2023-01-28T20:44:22.164Z,3.50
2023-01-28T20:47:08.078Z,3.58
2023-01-28T20:49:53.117Z,3.47
2023-01-28T20:52:38.479Z,4.00
2023-01-28T20:55:24.341Z,3.70
2023-01-28T20:58:09.408Z,3.85
2023-01-28T21:00:54.750Z,3.65
2023-01-28T21:03:40.129Z,3.78
2023-01-28T21:06:26.351Z,4.03
2023-01-28T21:09:11.511Z,4.03
2023-01-28T21:11:56.931Z,3.65
2023-01-28T21:14:42.294Z,3.38
2023-01-28T21:17:27.617Z,3.40
2023-01-28T21:20:13.231Z,3.30
2023-01-28T21:22:59.258Z,3.50
2023-01-28T21:25:50.111Z,3.55
2023-01-28T21:28:35.348Z,3.28
2023-01-28T21:31:25.233Z,3.42
2023-01-28T21:34:10.644Z,3.17
2023-01-28T21:36:56.000Z,3.85
2023-01-28T21:39:41.485Z,3.00
2023-01-28T21:42:26.978Z,3.00
2023-01-28T21:45:12.537Z,3.03
2023-01-28T21:47:57.929Z,2.95
2023-01-28T21:51:02.163Z,2.78
2023-01-28T21:53:47.332Z,3.00
2023-01-28T21:56:32.955Z,2.80
2023-01-28T21:59:28.241Z,2.65
2023-01-28T22:02:14.667Z,2.70
2023-01-28T22:04:59.706Z,2.28
2023-01-28T22:07:45.075Z,2.63
2023-01-28T22:10:30.418Z,2.70
2023-01-28T22:13:16.005Z,2.70
2023-01-28T22:16:01.255Z,2.90
2023-01-28T22:18:47.608Z,2.88
2023-01-28T22:21:33.230Z,2.65
2023-01-28T22:24:24.627Z,2.63
2023-01-28T22:27:10.026Z,2.72
2023-01-28T22:29:57.462Z,2.50
2023-01-28T22:32:43.684Z,2.97
2023-01-28T22:35:28.796Z,2.55
2023-01-28T22:38:15.071Z,3.00
2023-01-28T22:41:12.265Z,2.70
2023-01-28T22:43:58.277Z,3.10
2023-01-28T22:46:43.568Z,3.10
2023-01-28T22:49:28.881Z,3.15
2023-01-28T22:52:14.187Z,3.25
2023-01-28T22:54:59.508Z,3.13
2023-01-28T22:57:46.456Z,2.80
2023-01-28T23:00:32.017Z,3.67
2023-01-28T23:03:17.645Z,4.10
2023-01-28T23:06:04.669Z,3.58
2023-01-28T23:08:50.734Z,4.30
2023-01-28T23:11:36.376Z,4.10
2023-01-28T23:14:40.130Z,3.78
2023-01-28T23:17:43.817Z,4.20
2023-01-28T23:20:47.979Z,4.75
2023-01-28T23:23:51.789Z,5.00
2023-01-28T23:26:37.172Z,4.80
2023-01-28T23:29:24.760Z,4.95
2023-01-28T23:32:11.168Z,4.90
2023-01-28T23:34:57.215Z,5.13
2023-01-28T23:37:42.693Z,5.13
2023-01-28T23:40:28.265Z,4.75
2023-01-28T23:43:13.623Z,5.30
2023-01-28T23:45:58.914Z,5.35
2023-01-28T23:48:44.236Z,4.65
2023-01-28T23:51:29.742Z,4.95
2023-01-28T23:54:15.248Z,5.00
2023-01-28T23:57:01.125Z,4.50
2023-01-28T23:59:46.333Z,4.32
